sensor_id;sensor_type;location;lat;lon;timestamp;P1;durP1;ratioP1;P2;durP2;ratioP2
9898;SDS011;4988;49.238;6.698;2022-09-09T00:00:26;3.27;;;1.70;;
9898;SDS011;4988;49.238;6.698;2022-09-09T00:05:48;6.10;;;1.90;;
9898;SDS011;4988;49.238;6.698;2022-09-09T00:08:31;5.40;;;2.00;;
9898;SDS011;4988;49.238;6.698;2022-09-09T00:11:07;5.57;;;1.90;;
9898;SDS011;4988;49.238;6.698;2022-09-09T00:13:39;6.37;;;2.00;;
9898;SDS011;4988;49.238;6.698;2022-09-09T00:16:13;5.47;;;2.00;;
9898;SDS011;4988;49.238;6.698;2022-09-09T00:21:19;5.60;;;1.80;;
9898;SDS011;4988;49.238;6.698;2022-09-09T00:23:50;6.70;;;1.80;;
9898;SDS011;4988;49.238;6.698;2022-09-09T00:31:37;5.43;;;1.80;;
9898;SDS011;4988;49.238;6.698;2022-09-09T00:34:24;5.13;;;1.77;;
9898;SDS011;4988;49.238;6.698;2022-09-09T00:36:50;4.00;;;1.70;;
9898;SDS011;4988;49.238;6.698;2022-09-09T00:39:26;5.77;;;1.97;;
9898;SDS011;4988;49.238;6.698;2022-09-09T00:44:52;5.57;;;1.80;;
9898;SDS011;4988;49.238;6.698;2022-09-09T00:47:34;3.10;;;1.50;;
9898;SDS011;4988;49.238;6.698;2022-09-09T00:50:39;4.77;;;1.60;;
9898;SDS011;4988;49.238;6.698;2022-09-09T00:53:12;4.23;;;1.53;;
9898;SDS011;4988;49.238;6.698;2022-09-09T00:58:47;12.00;;;1.93;;
9898;SDS011;4988;49.238;6.698;2022-09-09T01:01:23;3.50;;;1.53;;
9898;SDS011;4988;49.238;6.698;2022-09-09T01:03:51;4.83;;;1.70;;
9898;SDS011;4988;49.238;6.698;2022-09-09T01:06:23;7.73;;;1.93;;
9898;SDS011;4988;49.238;6.698;2022-09-09T01:19:55;4.13;;;1.40;;
9898;SDS011;4988;49.238;6.698;2022-09-09T01:25:20;6.90;;;1.50;;
9898;SDS011;4988;49.238;6.698;2022-09-09T01:27:49;7.63;;;1.93;;
9898;SDS011;4988;49.238;6.698;2022-09-09T01:30:17;3.97;;;1.70;;
9898;SDS011;4988;49.238;6.698;2022-09-09T01:35:12;5.00;;;1.70;;
9898;SDS011;4988;49.238;6.698;2022-09-09T01:37:51;6.33;;;1.90;;
9898;SDS011;4988;49.238;6.698;2022-09-09T01:40:16;3.90;;;1.50;;
9898;SDS011;4988;49.238;6.698;2022-09-09T01:42:42;5.83;;;1.70;;
9898;SDS011;4988;49.238;6.698;2022-09-09T01:45:07;4.53;;;1.50;;
9898;SDS011;4988;49.238;6.698;2022-09-09T01:47:34;5.43;;;1.30;;
9898;SDS011;4988;49.238;6.698;2022-09-09T01:50:00;6.47;;;1.63;;
9898;SDS011;4988;49.238;6.698;2022-09-09T01:52:27;7.50;;;1.83;;
9898;SDS011;4988;49.238;6.698;2022-09-09T01:54:53;8.37;;;1.70;;
9898;SDS011;4988;49.238;6.698;2022-09-09T01:57:21;5.03;;;1.73;;
9898;SDS011;4988;49.238;6.698;2022-09-09T02:00:06;5.00;;;1.80;;
9898;SDS011;4988;49.238;6.698;2022-09-09T02:05:45;7.73;;;1.67;;
9898;SDS011;4988;49.238;6.698;2022-09-09T02:08:41;4.83;;;1.73;;
9898;SDS011;4988;49.238;6.698;2022-09-09T02:11:13;3.63;;;1.60;;
9898;SDS011;4988;49.238;6.698;2022-09-09T02:13:40;4.00;;;1.77;;
9898;SDS011;4988;49.238;6.698;2022-09-09T02:16:08;5.13;;;2.17;;
9898;SDS011;4988;49.238;6.698;2022-09-09T02:18:41;7.43;;;2.17;;
9898;SDS011;4988;49.238;6.698;2022-09-09T02:21:13;6.30;;;2.00;;
9898;SDS011;4988;49.238;6.698;2022-09-09T02:23:40;3.93;;;1.77;;
9898;SDS011;4988;49.238;6.698;2022-09-09T02:26:07;4.60;;;1.60;;
9898;SDS011;4988;49.238;6.698;2022-09-09T02:28:38;6.00;;;2.20;;
9898;SDS011;4988;49.238;6.698;2022-09-09T02:31:05;7.17;;;1.70;;
9898;SDS011;4988;49.238;6.698;2022-09-09T02:33:36;10.00;;;2.00;;
9898;SDS011;4988;49.238;6.698;2022-09-09T02:36:06;6.60;;;1.90;;
9898;SDS011;4988;49.238;6.698;2022-09-09T02:38:35;5.73;;;1.73;;
9898;SDS011;4988;49.238;6.698;2022-09-09T02:41:05;6.83;;;1.77;;
9898;SDS011;4988;49.238;6.698;2022-09-09T02:43:34;7.23;;;1.60;;
9898;SDS011;4988;49.238;6.698;2022-09-09T02:46:07;4.13;;;1.60;;
9898;SDS011;4988;49.238;6.698;2022-09-09T02:48:35;6.30;;;2.03;;
9898;SDS011;4988;49.238;6.698;2022-09-09T02:51:18;3.83;;;1.67;;
9898;SDS011;4988;49.238;6.698;2022-09-09T02:53:56;8.33;;;2.20;;
9898;SDS011;4988;49.238;6.698;2022-09-09T02:56:29;4.17;;;1.60;;
9898;SDS011;4988;49.238;6.698;2022-09-09T02:58:58;5.63;;;2.07;;
9898;SDS011;4988;49.238;6.698;2022-09-09T03:01:24;9.40;;;1.90;;
9898;SDS011;4988;49.238;6.698;2022-09-09T03:03:49;6.67;;;1.90;;
9898;SDS011;4988;49.238;6.698;2022-09-09T03:06:15;7.30;;;2.10;;
9898;SDS011;4988;49.238;6.698;2022-09-09T03:08:40;8.77;;;2.50;;
9898;SDS011;4988;49.238;6.698;2022-09-09T03:11:07;6.27;;;2.20;;
9898;SDS011;4988;49.238;6.698;2022-09-09T03:13:32;3.93;;;2.00;;
9898;SDS011;4988;49.238;6.698;2022-09-09T03:15:57;7.10;;;2.00;;
9898;SDS011;4988;49.238;6.698;2022-09-09T03:18:22;11.23;;;1.90;;
9898;SDS011;4988;49.238;6.698;2022-09-09T03:20:48;3.77;;;1.70;;
9898;SDS011;4988;49.238;6.698;2022-09-09T03:23:13;5.03;;;2.00;;
9898;SDS011;4988;49.238;6.698;2022-09-09T03:25:39;4.97;;;2.30;;
9898;SDS011;4988;49.238;6.698;2022-09-09T03:28:11;5.63;;;1.90;;
9898;SDS011;4988;49.238;6.698;2022-09-09T03:30:36;4.60;;;2.00;;
9898;SDS011;4988;49.238;6.698;2022-09-09T03:33:02;6.23;;;2.20;;
9898;SDS011;4988;49.238;6.698;2022-09-09T03:35:28;6.00;;;3.17;;
9898;SDS011;4988;49.238;6.698;2022-09-09T03:37:54;5.27;;;1.90;;
9898;SDS011;4988;49.238;6.698;2022-09-09T03:40:20;9.80;;;2.27;;
9898;SDS011;4988;49.238;6.698;2022-09-09T03:42:46;8.73;;;2.20;;
9898;SDS011;4988;49.238;6.698;2022-09-09T03:45:11;6.73;;;2.13;;
9898;SDS011;4988;49.238;6.698;2022-09-09T03:47:36;8.70;;;2.30;;
9898;SDS011;4988;49.238;6.698;2022-09-09T03:50:02;7.93;;;2.20;;
9898;SDS011;4988;49.238;6.698;2022-09-09T03:52:29;3.67;;;2.07;;
9898;SDS011;4988;49.238;6.698;2022-09-09T03:54:55;6.80;;;2.10;;
9898;SDS011;4988;49.238;6.698;2022-09-09T03:57:21;4.67;;;2.10;;
9898;SDS011;4988;49.238;6.698;2022-09-09T03:59:47;4.23;;;2.20;;
9898;SDS011;4988;49.238;6.698;2022-09-09T04:02:12;8.57;;;2.00;;
9898;SDS011;4988;49.238;6.698;2022-09-09T04:04:38;6.67;;;2.70;;
9898;SDS011;4988;49.238;6.698;2022-09-09T04:07:03;8.33;;;2.17;;
9898;SDS011;4988;49.238;6.698;2022-09-09T04:09:30;7.27;;;2.57;;
9898;SDS011;4988;49.238;6.698;2022-09-09T04:11:56;6.00;;;2.07;;
9898;SDS011;4988;49.238;6.698;2022-09-09T04:14:21;8.90;;;2.23;;
9898;SDS011;4988;49.238;6.698;2022-09-09T04:16:47;8.10;;;2.10;;
9898;SDS011;4988;49.238;6.698;2022-09-09T04:19:12;8.47;;;2.20;;
9898;SDS011;4988;49.238;6.698;2022-09-09T04:21:39;7.50;;;2.57;;
9898;SDS011;4988;49.238;6.698;2022-09-09T04:24:06;7.20;;;2.07;;
9898;SDS011;4988;49.238;6.698;2022-09-09T04:26:32;9.47;;;2.93;;
9898;SDS011;4988;49.238;6.698;2022-09-09T04:28:58;5.40;;;2.00;;
9898;SDS011;4988;49.238;6.698;2022-09-09T04:31:23;5.93;;;2.20;;
9898;SDS011;4988;49.238;6.698;2022-09-09T04:33:50;5.07;;;2.13;;
9898;SDS011;4988;49.238;6.698;2022-09-09T04:36:16;7.87;;;2.33;;
9898;SDS011;4988;49.238;6.698;2022-09-09T04:38:44;5.40;;;2.13;;
9898;SDS011;4988;49.238;6.698;2022-09-09T04:41:09;4.63;;;2.00;;
9898;SDS011;4988;49.238;6.698;2022-09-09T04:43:36;9.27;;;2.63;;
9898;SDS011;4988;49.238;6.698;2022-09-09T04:46:02;11.63;;;2.50;;
9898;SDS011;4988;49.238;6.698;2022-09-09T04:48:28;8.77;;;2.40;;
9898;SDS011;4988;49.238;6.698;2022-09-09T04:50:54;6.80;;;2.40;;
9898;SDS011;4988;49.238;6.698;2022-09-09T04:53:23;13.27;;;2.60;;
9898;SDS011;4988;49.238;6.698;2022-09-09T04:55:50;7.93;;;2.70;;
9898;SDS011;4988;49.238;6.698;2022-09-09T04:58:16;6.17;;;2.83;;
9898;SDS011;4988;49.238;6.698;2022-09-09T05:00:42;8.00;;;2.50;;
9898;SDS011;4988;49.238;6.698;2022-09-09T05:03:07;7.93;;;2.90;;
9898;SDS011;4988;49.238;6.698;2022-09-09T05:05:33;9.57;;;3.40;;
9898;SDS011;4988;49.238;6.698;2022-09-09T05:08:03;10.57;;;2.73;;
9898;SDS011;4988;49.238;6.698;2022-09-09T05:10:31;9.17;;;2.67;;
9898;SDS011;4988;49.238;6.698;2022-09-09T05:12:57;12.53;;;2.93;;
9898;SDS011;4988;49.238;6.698;2022-09-09T05:15:22;9.53;;;2.47;;
9898;SDS011;4988;49.238;6.698;2022-09-09T05:17:47;7.33;;;2.70;;
9898;SDS011;4988;49.238;6.698;2022-09-09T05:20:13;8.00;;;2.43;;
9898;SDS011;4988;49.238;6.698;2022-09-09T05:22:38;8.03;;;3.03;;
9898;SDS011;4988;49.238;6.698;2022-09-09T05:25:04;7.77;;;2.77;;
9898;SDS011;4988;49.238;6.698;2022-09-09T05:27:29;8.67;;;2.87;;
9898;SDS011;4988;49.238;6.698;2022-09-09T05:29:56;10.33;;;2.83;;
9898;SDS011;4988;49.238;6.698;2022-09-09T05:32:22;15.17;;;3.70;;
9898;SDS011;4988;49.238;6.698;2022-09-09T05:34:47;11.57;;;2.97;;
9898;SDS011;4988;49.238;6.698;2022-09-09T05:37:13;7.37;;;2.90;;
9898;SDS011;4988;49.238;6.698;2022-09-09T05:39:38;10.83;;;2.60;;
9898;SDS011;4988;49.238;6.698;2022-09-09T05:42:04;6.53;;;2.90;;
9898;SDS011;4988;49.238;6.698;2022-09-09T05:44:30;8.83;;;3.07;;
9898;SDS011;4988;49.238;6.698;2022-09-09T05:46:55;11.20;;;3.13;;
9898;SDS011;4988;49.238;6.698;2022-09-09T05:49:22;12.33;;;3.43;;
9898;SDS011;4988;49.238;6.698;2022-09-09T05:51:48;10.80;;;2.87;;
9898;SDS011;4988;49.238;6.698;2022-09-09T05:54:15;9.73;;;2.50;;
9898;SDS011;4988;49.238;6.698;2022-09-09T05:56:41;6.40;;;2.27;;
9898;SDS011;4988;49.238;6.698;2022-09-09T05:59:06;11.80;;;2.50;;
9898;SDS011;4988;49.238;6.698;2022-09-09T06:01:34;6.97;;;1.93;;
9898;SDS011;4988;49.238;6.698;2022-09-09T06:04:00;7.37;;;2.07;;
9898;SDS011;4988;49.238;6.698;2022-09-09T06:06:29;7.47;;;2.07;;
9898;SDS011;4988;49.238;6.698;2022-09-09T06:08:56;11.03;;;1.80;;
9898;SDS011;4988;49.238;6.698;2022-09-09T06:11:26;8.27;;;2.30;;
9898;SDS011;4988;49.238;6.698;2022-09-09T06:13:55;7.83;;;2.23;;
9898;SDS011;4988;49.238;6.698;2022-09-09T06:16:22;11.03;;;2.30;;
9898;SDS011;4988;49.238;6.698;2022-09-09T06:18:49;9.30;;;2.33;;
9898;SDS011;4988;49.238;6.698;2022-09-09T06:21:16;8.60;;;1.93;;
9898;SDS011;4988;49.238;6.698;2022-09-09T06:23:43;10.17;;;2.07;;
9898;SDS011;4988;49.238;6.698;2022-09-09T06:26:16;10.03;;;1.80;;
9898;SDS011;4988;49.238;6.698;2022-09-09T06:28:44;9.07;;;2.97;;
9898;SDS011;4988;49.238;6.698;2022-09-09T06:31:11;13.20;;;3.50;;
9898;SDS011;4988;49.238;6.698;2022-09-09T06:33:38;10.13;;;2.27;;
9898;SDS011;4988;49.238;6.698;2022-09-09T06:36:07;8.73;;;2.20;;
9898;SDS011;4988;49.238;6.698;2022-09-09T06:38:36;8.17;;;2.00;;
9898;SDS011;4988;49.238;6.698;2022-09-09T06:41:01;11.03;;;2.47;;
9898;SDS011;4988;49.238;6.698;2022-09-09T06:43:27;10.57;;;2.20;;
9898;SDS011;4988;49.238;6.698;2022-09-09T06:45:54;6.67;;;2.10;;
9898;SDS011;4988;49.238;6.698;2022-09-09T06:48:19;8.57;;;2.67;;
9898;SDS011;4988;49.238;6.698;2022-09-09T06:50:45;8.67;;;2.73;;
9898;SDS011;4988;49.238;6.698;2022-09-09T06:53:11;8.73;;;2.50;;
9898;SDS011;4988;49.238;6.698;2022-09-09T06:55:36;11.10;;;2.57;;
9898;SDS011;4988;49.238;6.698;2022-09-09T06:58:01;12.53;;;2.83;;
9898;SDS011;4988;49.238;6.698;2022-09-09T07:00:27;7.07;;;2.50;;
9898;SDS011;4988;49.238;6.698;2022-09-09T07:02:53;10.83;;;2.73;;
9898;SDS011;4988;49.238;6.698;2022-09-09T07:05:18;10.67;;;2.60;;
9898;SDS011;4988;49.238;6.698;2022-09-09T07:07:44;10.70;;;2.60;;
9898;SDS011;4988;49.238;6.698;2022-09-09T07:10:09;10.13;;;2.50;;
9898;SDS011;4988;49.238;6.698;2022-09-09T07:12:34;9.20;;;2.30;;
9898;SDS011;4988;49.238;6.698;2022-09-09T07:15:00;8.20;;;2.47;;
9898;SDS011;4988;49.238;6.698;2022-09-09T07:17:25;7.07;;;2.13;;
9898;SDS011;4988;49.238;6.698;2022-09-09T07:19:53;9.27;;;2.90;;
9898;SDS011;4988;49.238;6.698;2022-09-09T07:22:18;10.23;;;2.20;;
9898;SDS011;4988;49.238;6.698;2022-09-09T07:24:44;9.63;;;2.00;;
9898;SDS011;4988;49.238;6.698;2022-09-09T07:27:10;14.00;;;2.27;;
9898;SDS011;4988;49.238;6.698;2022-09-09T07:29:35;8.17;;;2.27;;
9898;SDS011;4988;49.238;6.698;2022-09-09T07:32:00;8.67;;;2.07;;
9898;SDS011;4988;49.238;6.698;2022-09-09T07:34:27;9.30;;;2.30;;
9898;SDS011;4988;49.238;6.698;2022-09-09T07:36:52;6.10;;;1.90;;
9898;SDS011;4988;49.238;6.698;2022-09-09T07:39:18;9.20;;;2.10;;
9898;SDS011;4988;49.238;6.698;2022-09-09T07:41:44;9.27;;;2.20;;
9898;SDS011;4988;49.238;6.698;2022-09-09T07:44:13;11.97;;;2.00;;
9898;SDS011;4988;49.238;6.698;2022-09-09T07:46:41;8.70;;;2.40;;
9898;SDS011;4988;49.238;6.698;2022-09-09T07:49:07;8.97;;;1.93;;
9898;SDS011;4988;49.238;6.698;2022-09-09T07:51:35;11.10;;;2.13;;
9898;SDS011;4988;49.238;6.698;2022-09-09T07:54:06;8.13;;;2.00;;
9898;SDS011;4988;49.238;6.698;2022-09-09T07:56:34;10.03;;;2.37;;
9898;SDS011;4988;49.238;6.698;2022-09-09T07:59:00;8.13;;;2.47;;
9898;SDS011;4988;49.238;6.698;2022-09-09T08:01:36;9.53;;;2.20;;
9898;SDS011;4988;49.238;6.698;2022-09-09T08:04:05;11.83;;;2.23;;
9898;SDS011;4988;49.238;6.698;2022-09-09T08:06:40;11.03;;;2.13;;
9898;SDS011;4988;49.238;6.698;2022-09-09T08:09:07;8.93;;;2.10;;
9898;SDS011;4988;49.238;6.698;2022-09-09T08:11:34;7.93;;;2.00;;
9898;SDS011;4988;49.238;6.698;2022-09-09T08:14:01;10.53;;;2.57;;
9898;SDS011;4988;49.238;6.698;2022-09-09T08:16:34;11.10;;;2.80;;
9898;SDS011;4988;49.238;6.698;2022-09-09T08:19:02;9.13;;;2.10;;
9898;SDS011;4988;49.238;6.698;2022-09-09T08:21:28;6.83;;;2.13;;
9898;SDS011;4988;49.238;6.698;2022-09-09T08:23:57;11.77;;;2.90;;
9898;SDS011;4988;49.238;6.698;2022-09-09T08:26:33;12.23;;;2.33;;
9898;SDS011;4988;49.238;6.698;2022-09-09T08:29:00;6.43;;;2.03;;
9898;SDS011;4988;49.238;6.698;2022-09-09T08:31:32;11.20;;;2.37;;
9898;SDS011;4988;49.238;6.698;2022-09-09T08:34:02;11.77;;;2.23;;
9898;SDS011;4988;49.238;6.698;2022-09-09T08:36:29;7.97;;;1.77;;
9898;SDS011;4988;49.238;6.698;2022-09-09T08:38:56;8.83;;;2.00;;
9898;SDS011;4988;49.238;6.698;2022-09-09T09:08:55;7.33;;;1.70;;
9898;SDS011;4988;49.238;6.698;2022-09-09T09:11:27;6.77;;;1.90;;
9898;SDS011;4988;49.238;6.698;2022-09-09T09:14:03;5.20;;;1.93;;
9898;SDS011;4988;49.238;6.698;2022-09-09T09:16:34;6.23;;;1.70;;
9898;SDS011;4988;49.238;6.698;2022-09-09T09:19:01;9.87;;;2.20;;
9898;SDS011;4988;49.238;6.698;2022-09-09T09:21:32;7.47;;;1.67;;
9898;SDS011;4988;49.238;6.698;2022-09-09T09:24:01;9.03;;;2.10;;
9898;SDS011;4988;49.238;6.698;2022-09-09T09:26:34;9.23;;;2.00;;
9898;SDS011;4988;49.238;6.698;2022-09-09T09:29:00;11.83;;;2.13;;
9898;SDS011;4988;49.238;6.698;2022-09-09T09:31:35;9.33;;;1.60;;
9898;SDS011;4988;49.238;6.698;2022-09-09T09:34:00;8.13;;;1.60;;
9898;SDS011;4988;49.238;6.698;2022-09-09T09:37:00;9.60;;;1.90;;
9898;SDS011;4988;49.238;6.698;2022-09-09T09:39:30;10.10;;;2.30;;
9898;SDS011;4988;49.238;6.698;2022-09-09T09:42:09;9.50;;;2.07;;
9898;SDS011;4988;49.238;6.698;2022-09-09T09:44:40;10.47;;;1.70;;
9898;SDS011;4988;49.238;6.698;2022-09-09T09:49:50;7.83;;;1.67;;
9898;SDS011;4988;49.238;6.698;2022-09-09T09:52:25;7.93;;;2.00;;
9898;SDS011;4988;49.238;6.698;2022-09-09T09:54:53;7.30;;;1.60;;
9898;SDS011;4988;49.238;6.698;2022-09-09T09:57:27;5.87;;;1.73;;
9898;SDS011;4988;49.238;6.698;2022-09-09T10:00:03;8.77;;;2.00;;
9898;SDS011;4988;49.238;6.698;2022-09-09T10:02:41;5.67;;;1.40;;
9898;SDS011;4988;49.238;6.698;2022-09-09T10:05:16;10.30;;;1.90;;
9898;SDS011;4988;49.238;6.698;2022-09-09T10:07:44;8.23;;;1.60;;
9898;SDS011;4988;49.238;6.698;2022-09-09T10:10:12;9.77;;;1.63;;
9898;SDS011;4988;49.238;6.698;2022-09-09T10:13:46;6.87;;;1.70;;
9898;SDS011;4988;49.238;6.698;2022-09-09T10:15:57;6.43;;;1.70;;
9898;SDS011;4988;49.238;6.698;2022-09-09T10:32:37;4.90;;;1.80;;
9898;SDS011;4988;49.238;6.698;2022-09-09T10:35:17;12.00;;;1.77;;
9898;SDS011;4988;49.238;6.698;2022-09-09T10:43:29;5.93;;;1.40;;
9898;SDS011;4988;49.238;6.698;2022-09-09T10:56:51;4.77;;;1.37;;
9898;SDS011;4988;49.238;6.698;2022-09-09T10:59:23;10.30;;;2.10;;
9898;SDS011;4988;49.238;6.698;2022-09-09T11:01:53;7.73;;;1.50;;
9898;SDS011;4988;49.238;6.698;2022-09-09T11:04:26;5.10;;;1.30;;
9898;SDS011;4988;49.238;6.698;2022-09-09T11:06:59;4.93;;;1.30;;
9898;SDS011;4988;49.238;6.698;2022-09-09T11:09:32;5.13;;;1.40;;
9898;SDS011;4988;49.238;6.698;2022-09-09T11:12:04;4.33;;;1.40;;
9898;SDS011;4988;49.238;6.698;2022-09-09T11:17:20;6.97;;;1.53;;
9898;SDS011;4988;49.238;6.698;2022-09-09T11:19:51;8.07;;;1.43;;
9898;SDS011;4988;49.238;6.698;2022-09-09T11:25:16;5.80;;;1.60;;
9898;SDS011;4988;49.238;6.698;2022-09-09T11:33:18;3.80;;;1.50;;
9898;SDS011;4988;49.238;6.698;2022-09-09T11:36:02;6.93;;;1.13;;
9898;SDS011;4988;49.238;6.698;2022-09-09T11:39:13;6.57;;;1.37;;
9898;SDS011;4988;49.238;6.698;2022-09-09T11:41:51;3.17;;;1.10;;
9898;SDS011;4988;49.238;6.698;2022-09-09T11:44:18;3.40;;;1.40;;
9898;SDS011;4988;49.238;6.698;2022-09-09T11:46:50;3.10;;;1.10;;
9898;SDS011;4988;49.238;6.698;2022-09-09T11:49:27;4.57;;;1.50;;
9898;SDS011;4988;49.238;6.698;2022-09-09T11:55:07;4.13;;;1.20;;
9898;SDS011;4988;49.238;6.698;2022-09-09T11:57:48;3.47;;;1.03;;
9898;SDS011;4988;49.238;6.698;2022-09-09T12:00:34;2.57;;;1.00;;
9898;SDS011;4988;49.238;6.698;2022-09-09T12:03:02;3.60;;;1.10;;
9898;SDS011;4988;49.238;6.698;2022-09-09T12:05:42;4.60;;;1.00;;
9898;SDS011;4988;49.238;6.698;2022-09-09T12:08:10;4.50;;;1.10;;
9898;SDS011;4988;49.238;6.698;2022-09-09T12:10:52;5.87;;;1.40;;
9898;SDS011;4988;49.238;6.698;2022-09-09T12:13:19;7.10;;;1.40;;
9898;SDS011;4988;49.238;6.698;2022-09-09T12:15:48;5.87;;;1.47;;
9898;SDS011;4988;49.238;6.698;2022-09-09T12:18:25;6.53;;;1.83;;
9898;SDS011;4988;49.238;6.698;2022-09-09T12:21:03;9.97;;;2.20;;
9898;SDS011;4988;49.238;6.698;2022-09-09T12:23:40;9.27;;;2.20;;
9898;SDS011;4988;49.238;6.698;2022-09-09T12:32:11;13.00;;;2.60;;
9898;SDS011;4988;49.238;6.698;2022-09-09T12:34:42;7.73;;;2.27;;
9898;SDS011;4988;49.238;6.698;2022-09-09T12:40:01;7.97;;;2.00;;
9898;SDS011;4988;49.238;6.698;2022-09-09T12:42:29;5.70;;;1.97;;
9898;SDS011;4988;49.238;6.698;2022-09-09T12:44:58;6.23;;;2.47;;
9898;SDS011;4988;49.238;6.698;2022-09-09T12:47:26;6.87;;;2.30;;
9898;SDS011;4988;49.238;6.698;2022-09-09T12:50:12;5.80;;;1.90;;
9898;SDS011;4988;49.238;6.698;2022-09-09T12:52:41;5.97;;;2.00;;
9898;SDS011;4988;49.238;6.698;2022-09-09T12:55:07;12.77;;;2.33;;
9898;SDS011;4988;49.238;6.698;2022-09-09T12:57:43;6.37;;;2.00;;
9898;SDS011;4988;49.238;6.698;2022-09-09T13:00:14;5.37;;;1.90;;
9898;SDS011;4988;49.238;6.698;2022-09-09T13:05:25;5.23;;;2.10;;
9898;SDS011;4988;49.238;6.698;2022-09-09T13:07:51;5.50;;;1.60;;
9898;SDS011;4988;49.238;6.698;2022-09-09T13:10:26;5.67;;;1.57;;
9898;SDS011;4988;49.238;6.698;2022-09-09T13:12:55;5.03;;;1.80;;
9898;SDS011;4988;49.238;6.698;2022-09-09T13:15:21;3.67;;;1.37;;
9898;SDS011;4988;49.238;6.698;2022-09-09T13:17:50;5.23;;;1.60;;
9898;SDS011;4988;49.238;6.698;2022-09-09T13:20:18;4.37;;;1.50;;
9898;SDS011;4988;49.238;6.698;2022-09-09T13:22:44;6.37;;;1.60;;
9898;SDS011;4988;49.238;6.698;2022-09-09T13:27:38;7.63;;;2.47;;
9898;SDS011;4988;49.238;6.698;2022-09-09T13:30:21;4.40;;;1.33;;
9898;SDS011;4988;49.238;6.698;2022-09-09T13:33:04;3.07;;;1.67;;
9898;SDS011;4988;49.238;6.698;2022-09-09T13:35:30;3.27;;;1.40;;
9898;SDS011;4988;49.238;6.698;2022-09-09T13:37:56;5.90;;;1.30;;
9898;SDS011;4988;49.238;6.698;2022-09-09T13:40:23;3.03;;;1.30;;
9898;SDS011;4988;49.238;6.698;2022-09-09T13:42:54;2.57;;;1.20;;
9898;SDS011;4988;49.238;6.698;2022-09-09T13:45:22;3.13;;;1.40;;
9898;SDS011;4988;49.238;6.698;2022-09-09T13:47:51;4.50;;;1.43;;
9898;SDS011;4988;49.238;6.698;2022-09-09T13:50:24;3.10;;;1.03;;
9898;SDS011;4988;49.238;6.698;2022-09-09T13:52:54;4.77;;;1.10;;
9898;SDS011;4988;49.238;6.698;2022-09-09T13:55:23;3.33;;;1.20;;
9898;SDS011;4988;49.238;6.698;2022-09-09T14:00:17;5.63;;;1.27;;
9898;SDS011;4988;49.238;6.698;2022-09-09T14:02:43;5.53;;;1.33;;
9898;SDS011;4988;49.238;6.698;2022-09-09T14:05:09;4.63;;;1.00;;
9898;SDS011;4988;49.238;6.698;2022-09-09T14:07:34;2.73;;;0.90;;
9898;SDS011;4988;49.238;6.698;2022-09-09T14:10:00;5.23;;;1.10;;
9898;SDS011;4988;49.238;6.698;2022-09-09T14:12:28;3.30;;;1.17;;
9898;SDS011;4988;49.238;6.698;2022-09-09T14:14:53;2.50;;;1.00;;
9898;SDS011;4988;49.238;6.698;2022-09-09T14:17:19;2.53;;;1.07;;
9898;SDS011;4988;49.238;6.698;2022-09-09T14:19:44;2.43;;;1.10;;
9898;SDS011;4988;49.238;6.698;2022-09-09T14:22:10;2.83;;;1.00;;
9898;SDS011;4988;49.238;6.698;2022-09-09T14:24:36;3.53;;;1.27;;
9898;SDS011;4988;49.238;6.698;2022-09-09T14:27:01;8.23;;;1.50;;
9898;SDS011;4988;49.238;6.698;2022-09-09T14:29:27;6.37;;;1.40;;
9898;SDS011;4988;49.238;6.698;2022-09-09T14:31:52;2.87;;;1.40;;
9898;SDS011;4988;49.238;6.698;2022-09-09T14:34:17;4.60;;;1.17;;
9898;SDS011;4988;49.238;6.698;2022-09-09T14:36:43;4.53;;;1.10;;
9898;SDS011;4988;49.238;6.698;2022-09-09T14:39:10;3.13;;;1.17;;
9898;SDS011;4988;49.238;6.698;2022-09-09T14:41:37;3.27;;;1.17;;
9898;SDS011;4988;49.238;6.698;2022-09-09T14:44:03;4.43;;;1.33;;
9898;SDS011;4988;49.238;6.698;2022-09-09T14:46:28;3.87;;;1.90;;
9898;SDS011;4988;49.238;6.698;2022-09-09T14:48:56;8.97;;;1.57;;
9898;SDS011;4988;49.238;6.698;2022-09-09T14:51:25;6.20;;;1.37;;
9898;SDS011;4988;49.238;6.698;2022-09-09T14:53:55;7.60;;;1.70;;
9898;SDS011;4988;49.238;6.698;2022-09-09T14:56:23;7.03;;;1.70;;
9898;SDS011;4988;49.238;6.698;2022-09-09T14:58:55;8.10;;;2.53;;
9898;SDS011;4988;49.238;6.698;2022-09-09T15:01:21;4.40;;;1.60;;
9898;SDS011;4988;49.238;6.698;2022-09-09T15:03:57;5.57;;;1.50;;
9898;SDS011;4988;49.238;6.698;2022-09-09T15:06:29;5.40;;;1.83;;
9898;SDS011;4988;49.238;6.698;2022-09-09T15:09:09;5.30;;;1.70;;
9898;SDS011;4988;49.238;6.698;2022-09-09T15:11:36;8.23;;;2.00;;
9898;SDS011;4988;49.238;6.698;2022-09-09T15:14:03;4.17;;;1.47;;
9898;SDS011;4988;49.238;6.698;2022-09-09T15:16:29;8.43;;;2.00;;
9898;SDS011;4988;49.238;6.698;2022-09-09T15:18:57;6.53;;;2.40;;
9898;SDS011;4988;49.238;6.698;2022-09-09T15:21:25;3.13;;;2.00;;
9898;SDS011;4988;49.238;6.698;2022-09-09T15:23:52;5.43;;;2.10;;
9898;SDS011;4988;49.238;6.698;2022-09-09T15:26:18;3.57;;;1.60;;
9898;SDS011;4988;49.238;6.698;2022-09-09T15:28:47;3.77;;;1.70;;
9898;SDS011;4988;49.238;6.698;2022-09-09T15:31:15;2.63;;;1.70;;
9898;SDS011;4988;49.238;6.698;2022-09-09T15:33:51;5.47;;;2.30;;
9898;SDS011;4988;49.238;6.698;2022-09-09T15:36:30;5.57;;;1.90;;
9898;SDS011;4988;49.238;6.698;2022-09-09T15:39:00;5.13;;;1.57;;
9898;SDS011;4988;49.238;6.698;2022-09-09T15:41:27;4.30;;;1.80;;
9898;SDS011;4988;49.238;6.698;2022-09-09T15:43:55;6.90;;;1.93;;
9898;SDS011;4988;49.238;6.698;2022-09-09T15:46:26;4.23;;;1.90;;
9898;SDS011;4988;49.238;6.698;2022-09-09T15:51:33;5.00;;;2.27;;
9898;SDS011;4988;49.238;6.698;2022-09-09T15:53:59;6.67;;;1.93;;
9898;SDS011;4988;49.238;6.698;2022-09-09T15:56:25;4.97;;;2.07;;
9898;SDS011;4988;49.238;6.698;2022-09-09T15:58:52;3.63;;;1.90;;
9898;SDS011;4988;49.238;6.698;2022-09-09T16:01:18;5.27;;;2.00;;
9898;SDS011;4988;49.238;6.698;2022-09-09T16:03:44;5.27;;;2.00;;
9898;SDS011;4988;49.238;6.698;2022-09-09T16:06:11;3.87;;;1.53;;
9898;SDS011;4988;49.238;6.698;2022-09-09T16:08:39;7.43;;;2.10;;
9898;SDS011;4988;49.238;6.698;2022-09-09T16:11:11;7.87;;;1.50;;
9898;SDS011;4988;49.238;6.698;2022-09-09T16:13:43;5.27;;;1.70;;
9898;SDS011;4988;49.238;6.698;2022-09-09T16:16:10;5.57;;;1.37;;
9898;SDS011;4988;49.238;6.698;2022-09-09T16:18:37;5.10;;;1.50;;
9898;SDS011;4988;49.238;6.698;2022-09-09T16:21:08;6.93;;;1.40;;
9898;SDS011;4988;49.238;6.698;2022-09-09T16:23:39;2.27;;;1.30;;
9898;SDS011;4988;49.238;6.698;2022-09-09T16:26:04;3.87;;;1.37;;
9898;SDS011;4988;49.238;6.698;2022-09-09T16:28:30;3.57;;;1.30;;
9898;SDS011;4988;49.238;6.698;2022-09-09T16:30:56;3.33;;;1.30;;
9898;SDS011;4988;49.238;6.698;2022-09-09T16:33:23;4.87;;;1.60;;
9898;SDS011;4988;49.238;6.698;2022-09-09T16:35:48;3.80;;;1.53;;
9898;SDS011;4988;49.238;6.698;2022-09-09T16:38:14;3.40;;;1.67;;
9898;SDS011;4988;49.238;6.698;2022-09-09T16:40:42;4.33;;;1.73;;
9898;SDS011;4988;49.238;6.698;2022-09-09T16:43:07;6.43;;;1.37;;
9898;SDS011;4988;49.238;6.698;2022-09-09T16:45:40;3.27;;;1.40;;
9898;SDS011;4988;49.238;6.698;2022-09-09T16:48:09;8.20;;;1.70;;
9898;SDS011;4988;49.238;6.698;2022-09-09T16:50:35;3.63;;;1.40;;
9898;SDS011;4988;49.238;6.698;2022-09-09T16:53:00;3.70;;;1.53;;
9898;SDS011;4988;49.238;6.698;2022-09-09T16:55:31;6.10;;;1.60;;
9898;SDS011;4988;49.238;6.698;2022-09-09T16:57:57;3.90;;;1.63;;
9898;SDS011;4988;49.238;6.698;2022-09-09T17:00:22;4.20;;;1.60;;
9898;SDS011;4988;49.238;6.698;2022-09-09T17:02:48;5.43;;;1.70;;
9898;SDS011;4988;49.238;6.698;2022-09-09T17:05:13;4.57;;;1.90;;
9898;SDS011;4988;49.238;6.698;2022-09-09T17:07:39;5.37;;;1.90;;
9898;SDS011;4988;49.238;6.698;2022-09-09T17:10:06;4.17;;;1.70;;
9898;SDS011;4988;49.238;6.698;2022-09-09T17:12:32;3.87;;;1.90;;
9898;SDS011;4988;49.238;6.698;2022-09-09T17:14:57;3.50;;;1.60;;
9898;SDS011;4988;49.238;6.698;2022-09-09T17:17:24;4.37;;;1.60;;
9898;SDS011;4988;49.238;6.698;2022-09-09T17:19:51;3.13;;;1.50;;
9898;SDS011;4988;49.238;6.698;2022-09-09T17:22:17;2.30;;;1.40;;
9898;SDS011;4988;49.238;6.698;2022-09-09T17:24:43;4.37;;;1.60;;
9898;SDS011;4988;49.238;6.698;2022-09-09T17:27:09;3.70;;;1.60;;
9898;SDS011;4988;49.238;6.698;2022-09-09T17:29:34;3.83;;;2.33;;
9898;SDS011;4988;49.238;6.698;2022-09-09T17:32:02;6.13;;;2.00;;
9898;SDS011;4988;49.238;6.698;2022-09-09T17:34:30;3.73;;;1.80;;